Time;durP1;ratioP1;P1;durP2;ratioP2;P2;SDS_P1;SDS_P2;PMS_P1;PMS_P2;Temp;Humidity;BMP_temperature;BMP_pressure;BME280_temperature;BME280_humidity;BME280_pressure;Samples;Min_cycle;Max_cycle;Signal;HPM_P1;HPM_P2
2023/03/22 00:00:15;;;;;;;4.68;3.00;;;;;;;;;;4953870;28;20781;-67
2023/03/22 00:02:41;;;;;;;4.72;3.10;;;;;;;;;;4949273;28;22573;-65
2023/03/22 00:05:06;;;;;;;4.77;3.20;;;;;;;;;;4933243;28;20081;-65
2023/03/22 00:07:31;;;;;;;4.53;3.22;;;;;;;;;;4972601;28;20943;-65
2023/03/22 00:09:57;;;;;;;4.53;3.23;;;;;;;;;;4953440;28;21386;-65
2023/03/22 00:12:22;;;;;;;4.47;3.38;;;;;;;;;;4947673;28;21534;-68
2023/03/22 00:14:48;;;;;;;3.78;2.80;;;;;;;;;;4953594;28;20983;-64
2023/03/22 00:17:13;;;;;;;4.00;3.20;;;;;;;;;;4950642;28;21353;-65
2023/03/22 00:19:41;;;;;;;4.07;3.38;;;;;;;;;;4951401;28;20217;-67
2023/03/22 00:22:07;;;;;;;4.85;3.50;;;;;;;;;;4951301;28;20856;-68
2023/03/22 00:24:32;;;;;;;3.90;2.92;;;;;;;;;;4970017;28;20024;-67
2023/03/22 00:26:58;;;;;;;4.60;3.10;;;;;;;;;;4935413;28;21128;-64
2023/03/22 00:29:23;;;;;;;4.33;3.10;;;;;;;;;;4951273;28;20025;-66
2023/03/22 00:31:50;;;;;;;4.28;3.10;;;;;;;;;;4929162;28;20303;-65
2023/03/22 00:34:16;;;;;;;3.72;2.75;;;;;;;;;;4954771;28;20079;-65
2023/03/22 00:36:41;;;;;;;4.15;3.10;;;;;;;;;;4950646;28;20791;-67
2023/03/22 00:39:06;;;;;;;4.03;3.00;;;;;;;;;;4956701;28;21088;-66
2023/03/22 00:41:32;;;;;;;4.00;3.00;;;;;;;;;;4955967;28;22050;-68
2023/03/22 00:43:57;;;;;;;3.87;2.80;;;;;;;;;;4952391;28;20520;-69
2023/03/22 00:46:22;;;;;;;3.88;2.90;;;;;;;;;;4954066;28;20326;-63
2023/03/22 00:48:48;;;;;;;3.97;2.70;;;;;;;;;;4970512;28;20044;-64
2023/03/22 00:51:13;;;;;;;3.70;3.00;;;;;;;;;;4938687;28;20049;-67
2023/03/22 00:53:38;;;;;;;4.72;2.80;;;;;;;;;;4952446;28;20879;-66
2023/03/22 00:56:04;;;;;;;2.88;2.58;;;;;;;;;;4960783;28;20822;-66
2023/03/22 00:58:29;;;;;;;4.05;2.97;;;;;;;;;;4956207;28;20486;-65
2023/03/22 01:00:55;;;;;;;4.15;2.75;;;;;;;;;;4938521;28;21275;-68
2023/03/22 01:03:20;;;;;;;3.50;2.55;;;;;;;;;;4946831;28;20049;-65
2023/03/22 01:05:48;;;;;;;4.10;2.97;;;;;;;;;;4954952;28;22886;-65
2023/03/22 01:08:13;;;;;;;3.97;2.90;;;;;;;;;;4955072;28;20037;-66
2023/03/22 01:10:39;;;;;;;4.45;2.78;;;;;;;;;;4939568;28;20042;-66
2023/03/22 01:13:04;;;;;;;3.30;2.45;;;;;;;;;;4935654;28;20135;-69
2023/03/22 01:15:29;;;;;;;3.10;2.30;;;;;;;;;;4944213;28;20534;-63
2023/03/22 01:17:55;;;;;;;3.50;2.55;;;;;;;;;;4946431;28;20098;-64
2023/03/22 01:20:20;;;;;;;3.50;2.78;;;;;;;;;;4956335;28;20040;-65
2023/03/22 01:22:45;;;;;;;4.65;3.00;;;;;;;;;;4940571;28;20042;-64
2023/03/22 01:25:11;;;;;;;3.40;2.60;;;;;;;;;;4970040;28;20398;-64
2023/03/22 01:27:36;;;;;;;3.67;2.67;;;;;;;;;;4950458;28;20044;-65
2023/03/22 01:30:01;;;;;;;3.38;2.70;;;;;;;;;;4950143;28;20045;-64
2023/03/22 01:32:27;;;;;;;3.10;2.50;;;;;;;;;;4938104;28;20048;-65
2023/03/22 01:34:52;;;;;;;3.33;2.60;;;;;;;;;;4954467;28;22073;-66
2023/03/22 01:37:17;;;;;;;3.40;2.50;;;;;;;;;;4954913;28;22288;-64
2023/03/22 01:39:43;;;;;;;3.42;2.78;;;;;;;;;;4957746;28;20120;-66
2023/03/22 01:42:12;;;;;;;3.55;2.80;;;;;;;;;;4929060;28;20064;-66
2023/03/22 01:44:37;;;;;;;4.03;2.85;;;;;;;;;;4949774;28;20058;-68
2023/03/22 01:47:03;;;;;;;3.15;2.50;;;;;;;;;;4972687;28;20442;-65
2023/03/22 01:49:30;;;;;;;3.70;2.50;;;;;;;;;;4955358;28;20068;-71
2023/03/22 01:51:56;;;;;;;3.55;2.53;;;;;;;;;;4961088;28;20742;-67
2023/03/22 01:54:35;;;;;;;3.45;2.70;;;;;;;;;;4954804;28;21128;-64
2023/03/22 01:57:01;;;;;;;4.03;2.63;;;;;;;;;;4953482;28;20052;-64
2023/03/22 01:59:26;;;;;;;3.80;2.83;;;;;;;;;;4938635;28;20181;-66
2023/03/22 02:01:51;;;;;;;3.60;2.72;;;;;;;;;;4953977;28;20136;-64
2023/03/22 02:04:18;;;;;;;3.30;2.50;;;;;;;;;;4971225;28;20532;-63
2023/03/22 02:06:45;;;;;;;3.00;2.38;;;;;;;;;;4971913;28;20334;-65
2023/03/22 02:09:11;;;;;;;3.00;2.40;;;;;;;;;;4952020;28;20040;-64
2023/03/22 02:11:40;;;;;;;3.33;2.45;;;;;;;;;;4940427;28;20068;-63
2023/03/22 02:14:28;;;;;;;3.38;2.47;;;;;;;;;;4954919;28;21590;-63
2023/03/22 02:16:54;;;;;;;3.30;2.47;;;;;;;;;;4952399;28;20937;-67
2023/03/22 02:19:41;;;;;;;3.17;2.60;;;;;;;;;;4971786;28;20041;-66
2023/03/22 02:22:27;;;;;;;3.72;2.72;;;;;;;;;;4972346;28;20300;-67
2023/03/22 02:25:18;;;;;;;3.80;2.60;;;;;;;;;;4967997;28;20064;-67
2023/03/22 02:28:15;;;;;;;3.00;2.63;;;;;;;;;;4955263;28;20045;-65
2023/03/22 02:30:56;;;;;;;3.38;2.35;;;;;;;;;;4931440;28;20174;-64
2023/03/22 02:33:33;;;;;;;2.78;2.35;;;;;;;;;;4968968;28;20037;-68
2023/03/22 02:35:58;;;;;;;2.90;2.33;;;;;;;;;;4966899;28;20203;-65
2023/03/22 02:38:44;;;;;;;3.40;2.33;;;;;;;;;;4971856;28;20037;-65
2023/03/22 02:41:09;;;;;;;3.00;2.35;;;;;;;;;;4944398;28;20366;-66
2023/03/22 02:43:45;;;;;;;3.47;2.50;;;;;;;;;;4960528;28;20578;-62
2023/03/22 02:46:36;;;;;;;2.97;2.60;;;;;;;;;;4947685;28;20292;-67
2023/03/22 02:49:06;;;;;;;3.67;2.70;;;;;;;;;;4945559;28;20054;-67
2023/03/22 02:51:33;;;;;;;3.35;2.75;;;;;;;;;;4958179;28;20797;-66
2023/03/22 02:54:02;;;;;;;3.63;2.13;;;;;;;;;;4950981;28;20653;-67
2023/03/22 02:56:39;;;;;;;3.38;2.60;;;;;;;;;;4935492;28;20069;-67
2023/03/22 02:59:05;;;;;;;3.00;2.47;;;;;;;;;;4947537;28;20176;-66
2023/03/22 03:01:35;;;;;;;3.03;2.60;;;;;;;;;;4947287;28;20053;-68
2023/03/22 03:04:03;;;;;;;3.42;2.40;;;;;;;;;;4964341;28;20743;-68
2023/03/22 03:06:30;;;;;;;3.03;2.15;;;;;;;;;;4949131;28;20132;-68
2023/03/22 03:08:56;;;;;;;2.70;2.40;;;;;;;;;;4936401;28;20044;-65
2023/03/22 03:11:22;;;;;;;3.28;2.45;;;;;;;;;;4965597;28;20021;-67
2023/03/22 03:13:47;;;;;;;3.13;2.20;;;;;;;;;;4965108;28;21683;-67
2023/03/22 03:16:16;;;;;;;3.38;2.40;;;;;;;;;;4947246;28;20406;-64
2023/03/22 03:18:44;;;;;;;3.22;2.30;;;;;;;;;;4967483;28;20100;-64
2023/03/22 03:21:15;;;;;;;3.05;2.38;;;;;;;;;;4967645;28;20094;-67
2023/03/22 03:23:41;;;;;;;2.75;2.10;;;;;;;;;;4958041;28;20045;-65
2023/03/22 03:26:07;;;;;;;2.80;2.20;;;;;;;;;;4970820;28;20184;-67
2023/03/22 03:28:37;;;;;;;3.08;2.30;;;;;;;;;;4972428;28;20668;-66
2023/03/22 03:31:08;;;;;;;3.03;2.45;;;;;;;;;;4966532;28;20180;-63
2023/03/22 03:33:34;;;;;;;2.65;2.05;;;;;;;;;;4962964;28;20045;-62
2023/03/22 03:36:18;;;;;;;2.80;2.28;;;;;;;;;;4950130;28;22304;-64
2023/03/22 03:38:45;;;;;;;2.70;2.30;;;;;;;;;;4947943;28;21928;-66
2023/03/22 03:41:12;;;;;;;3.17;2.03;;;;;;;;;;4948606;28;21268;-65
2023/03/22 03:43:37;;;;;;;2.90;2.22;;;;;;;;;;4948022;28;20198;-69
2023/03/22 03:46:02;;;;;;;2.40;2.00;;;;;;;;;;4948501;28;20214;-65
2023/03/22 03:48:28;;;;;;;3.23;2.13;;;;;;;;;;4944618;28;21298;-65
2023/03/22 03:50:54;;;;;;;2.95;2.00;;;;;;;;;;4962161;28;20279;-62
2023/03/22 03:53:19;;;;;;;2.70;2.20;;;;;;;;;;4967714;28;20045;-66
2023/03/22 03:55:45;;;;;;;2.77;1.93;;;;;;;;;;4964402;28;20068;-65
2023/03/22 03:58:10;;;;;;;2.55;2.00;;;;;;;;;;4948207;28;22253;-66
2023/03/22 04:00:35;;;;;;;2.47;2.17;;;;;;;;;;4948436;28;20205;-64
2023/03/22 04:03:01;;;;;;;2.72;2.15;;;;;;;;;;4948309;28;20446;-65
2023/03/22 04:05:26;;;;;;;2.97;2.17;;;;;;;;;;4962378;28;21864;-66
2023/03/22 04:07:51;;;;;;;3.45;2.20;;;;;;;;;;4947879;28;20176;-67
2023/03/22 04:10:17;;;;;;;2.50;2.03;;;;;;;;;;4951079;28;20061;-68
2023/03/22 04:12:42;;;;;;;2.60;1.90;;;;;;;;;;4926485;28;21252;-68
2023/03/22 04:15:07;;;;;;;2.50;1.80;;;;;;;;;;4957587;28;20358;-66
2023/03/22 04:17:33;;;;;;;2.65;1.92;;;;;;;;;;4971288;28;21155;-66
2023/03/22 04:19:58;;;;;;;2.43;1.90;;;;;;;;;;4953846;28;20600;-66
2023/03/22 04:22:24;;;;;;;3.10;2.45;;;;;;;;;;4950780;28;21064;-65
2023/03/22 04:24:49;;;;;;;2.00;1.70;;;;;;;;;;4969222;28;20551;-66
2023/03/22 04:27:14;;;;;;;3.00;2.07;;;;;;;;;;4970201;28;20557;-66
2023/03/22 04:29:40;;;;;;;3.08;2.25;;;;;;;;;;4967731;28;21228;-67
2023/03/22 04:32:05;;;;;;;2.85;2.08;;;;;;;;;;4953044;28;20045;-67
2023/03/22 04:34:30;;;;;;;2.45;1.98;;;;;;;;;;4968484;28;20045;-64
2023/03/22 04:36:56;;;;;;;2.97;1.92;;;;;;;;;;4933552;28;20064;-65
2023/03/22 04:39:21;;;;;;;2.30;1.92;;;;;;;;;;4937679;28;20179;-66
2023/03/22 04:41:46;;;;;;;3.10;2.10;;;;;;;;;;4951677;28;20155;-65
2023/03/22 04:44:12;;;;;;;2.05;1.70;;;;;;;;;;4931861;28;20096;-67
2023/03/22 04:46:37;;;;;;;2.63;2.00;;;;;;;;;;4930427;28;20068;-66
2023/03/22 04:49:03;;;;;;;2.50;2.00;;;;;;;;;;4969228;28;21235;-64
2023/03/22 04:51:29;;;;;;;2.72;1.80;;;;;;;;;;4947644;28;20303;-65
2023/03/22 04:53:54;;;;;;;2.67;2.05;;;;;;;;;;4968156;28;20049;-64
2023/03/22 04:56:19;;;;;;;2.78;2.00;;;;;;;;;;4964882;28;20847;-62
2023/03/22 04:58:45;;;;;;;2.28;1.88;;;;;;;;;;4973195;28;20037;-66
2023/03/22 05:01:10;;;;;;;2.10;1.80;;;;;;;;;;4953190;28;20053;-63
2023/03/22 05:03:36;;;;;;;2.17;1.70;;;;;;;;;;4956720;28;20036;-65
2023/03/22 05:06:01;;;;;;;2.30;1.83;;;;;;;;;;4975193;28;20079;-67
2023/03/22 05:08:27;;;;;;;2.58;1.90;;;;;;;;;;4977161;28;20047;-65
2023/03/22 05:10:53;;;;;;;1.92;1.60;;;;;;;;;;4976752;28;20052;-66
2023/03/22 05:13:18;;;;;;;2.95;1.70;;;;;;;;;;4971434;28;21384;-64
2023/03/22 05:15:44;;;;;;;3.17;2.10;;;;;;;;;;4974454;28;20521;-64
2023/03/22 05:18:09;;;;;;;3.22;1.70;;;;;;;;;;4948770;28;20059;-69
2023/03/22 05:20:35;;;;;;;3.47;1.65;;;;;;;;;;4970943;28;20037;-65
2023/03/22 05:23:01;;;;;;;2.45;1.80;;;;;;;;;;4937763;28;22538;-67
2023/03/22 05:25:26;;;;;;;2.50;1.67;;;;;;;;;;4951256;28;21125;-65
2023/03/22 05:27:53;;;;;;;2.55;1.77;;;;;;;;;;4939105;28;20539;-64
2023/03/22 05:30:18;;;;;;;2.40;1.67;;;;;;;;;;4935970;28;20052;-66
2023/03/22 05:32:43;;;;;;;1.95;1.50;;;;;;;;;;4939409;28;21109;-65
2023/03/22 05:35:09;;;;;;;2.20;1.60;;;;;;;;;;4955638;28;20196;-65
2023/03/22 05:37:35;;;;;;;2.20;1.50;;;;;;;;;;4945742;28;20331;-66
2023/03/22 05:40:00;;;;;;;3.90;1.85;;;;;;;;;;4957324;28;21695;-63
2023/03/22 05:42:25;;;;;;;2.08;1.58;;;;;;;;;;4957410;28;21748;-62
2023/03/22 05:44:51;;;;;;;3.30;1.75;;;;;;;;;;4933490;28;20053;-66
2023/03/22 05:47:16;;;;;;;2.30;1.53;;;;;;;;;;4961806;28;20450;-66
2023/03/22 05:49:41;;;;;;;2.05;1.55;;;;;;;;;;4957718;28;20682;-63
2023/03/22 05:52:06;;;;;;;2.58;1.70;;;;;;;;;;4960870;28;20416;-63
2023/03/22 05:54:32;;;;;;;1.70;1.30;;;;;;;;;;4963472;28;20763;-65
2023/03/22 05:56:57;;;;;;;2.25;1.58;;;;;;;;;;4958546;28;20179;-64
2023/03/22 05:59:22;;;;;;;2.80;1.60;;;;;;;;;;4962192;28;20478;-66
2023/03/22 06:01:48;;;;;;;2.55;1.70;;;;;;;;;;4928404;28;20820;-66
2023/03/22 06:04:13;;;;;;;1.77;1.25;;;;;;;;;;4925814;28;20190;-64
2023/03/22 06:06:40;;;;;;;2.00;1.40;;;;;;;;;;4922285;28;20044;-61
2023/03/22 06:09:06;;;;;;;2.17;1.67;;;;;;;;;;4942028;28;21017;-64
2023/03/22 06:11:34;;;;;;;3.08;1.52;;;;;;;;;;4919710;28;20041;-66
2023/03/22 06:14:00;;;;;;;2.22;1.50;;;;;;;;;;4938985;28;20112;-63
2023/03/22 06:16:25;;;;;;;2.15;1.50;;;;;;;;;;4938428;28;20214;-61
2023/03/22 06:18:51;;;;;;;1.73;1.40;;;;;;;;;;4936971;28;20844;-64
2023/03/22 06:21:16;;;;;;;5.15;1.60;;;;;;;;;;4911493;28;20045;-64
2023/03/22 06:23:42;;;;;;;1.90;1.42;;;;;;;;;;4925817;28;20506;-69
2023/03/22 06:26:10;;;;;;;1.83;1.38;;;;;;;;;;4940362;28;20046;-64
2023/03/22 06:28:35;;;;;;;4.88;1.45;;;;;;;;;;4940797;28;20045;-63
2023/03/22 06:31:04;;;;;;;2.83;1.45;;;;;;;;;;4934300;28;20121;-61
2023/03/22 06:33:30;;;;;;;1.60;1.30;;;;;;;;;;4942853;28;20045;-62
2023/03/22 06:35:55;;;;;;;2.58;1.60;;;;;;;;;;4935304;28;21071;-65
2023/03/22 06:38:20;;;;;;;2.85;1.30;;;;;;;;;;4953728;28;20792;-63
2023/03/22 06:40:45;;;;;;;1.80;1.17;;;;;;;;;;4955108;28;20580;-62
2023/03/22 06:43:11;;;;;;;2.38;1.55;;;;;;;;;;4937626;28;21771;-62
2023/03/22 06:45:36;;;;;;;3.92;1.50;;;;;;;;;;4936751;28;20172;-64
2023/03/22 06:48:01;;;;;;;2.17;1.40;;;;;;;;;;4903190;28;20254;-65
2023/03/22 06:50:27;;;;;;;3.43;1.57;;;;;;;;;;4900719;28;20786;-60
2023/03/22 06:52:52;;;;;;;2.83;1.30;;;;;;;;;;4914514;28;20311;-64
2023/03/22 06:55:18;;;;;;;2.25;1.45;;;;;;;;;;4927833;28;20117;-63
2023/03/22 06:57:43;;;;;;;1.90;1.17;;;;;;;;;;4920584;28;21175;-63
2023/03/22 07:00:09;;;;;;;1.80;1.33;;;;;;;;;;4917372;28;21055;-63
2023/03/22 07:02:35;;;;;;;2.35;1.30;;;;;;;;;;4932197;28;20057;-64
2023/03/22 07:05:00;;;;;;;1.80;1.30;;;;;;;;;;4938771;28;20048;-63
2023/03/22 07:07:25;;;;;;;2.50;1.50;;;;;;;;;;4957050;28;20066;-61
2023/03/22 07:09:52;;;;;;;1.70;1.20;;;;;;;;;;4954760;28;20037;-64
2023/03/22 07:12:17;;;;;;;1.85;1.23;;;;;;;;;;4939170;28;20614;-64
2023/03/22 07:14:42;;;;;;;2.17;1.30;;;;;;;;;;4943124;28;21406;-63
2023/03/22 07:17:08;;;;;;;1.85;1.20;;;;;;;;;;4937271;28;20485;-63
2023/03/22 07:19:33;;;;;;;2.13;1.20;;;;;;;;;;4950952;28;20157;-64
2023/03/22 07:21:59;;;;;;;1.80;1.10;;;;;;;;;;4941422;28;20565;-62
2023/03/22 07:24:24;;;;;;;1.70;1.35;;;;;;;;;;4946518;28;20137;-63
2023/03/22 07:26:49;;;;;;;1.90;1.40;;;;;;;;;;4956151;28;21657;-63
2023/03/22 07:29:14;;;;;;;1.77;1.33;;;;;;;;;;4956554;28;20053;-63
2023/03/22 07:31:41;;;;;;;2.50;1.50;;;;;;;;;;4961970;28;21388;-62
2023/03/22 07:34:06;;;;;;;4.82;1.63;;;;;;;;;;4930095;28;20299;-61
2023/03/22 07:36:32;;;;;;;2.65;1.48;;;;;;;;;;4956975;28;20634;-65
2023/03/22 07:38:57;;;;;;;2.17;1.20;;;;;;;;;;4939835;28;20037;-62
2023/03/22 07:41:23;;;;;;;2.00;1.30;;;;;;;;;;4935986;28;20562;-63
2023/03/22 07:43:48;;;;;;;2.90;1.60;;;;;;;;;;4941089;28;20554;-62
2023/03/22 07:46:13;;;;;;;2.15;1.23;;;;;;;;;;4959000;28;20819;-61
2023/03/22 07:48:39;;;;;;;2.95;1.42;;;;;;;;;;4956548;28;20915;-63
2023/03/22 07:51:05;;;;;;;2.72;1.50;;;;;;;;;;4953836;28;20410;-61
2023/03/22 07:53:30;;;;;;;2.60;1.40;;;;;;;;;;4956230;28;20111;-62
2023/03/22 07:55:55;;;;;;;1.60;1.20;;;;;;;;;;4940878;28;21106;-60
2023/03/22 07:58:21;;;;;;;2.42;1.40;;;;;;;;;;4957497;28;20814;-63
2023/03/22 08:00:48;;;;;;;3.78;1.60;;;;;;;;;;4952851;28;20795;-65
2023/03/22 08:03:13;;;;;;;3.08;1.33;;;;;;;;;;4967997;28;20091;-64
2023/03/22 08:05:40;;;;;;;2.45;1.23;;;;;;;;;;4972376;28;20086;-61
2023/03/22 08:08:05;;;;;;;4.22;1.35;;;;;;;;;;4971459;28;20531;-64
2023/03/22 08:10:31;;;;;;;2.35;1.30;;;;;;;;;;4940725;28;20100;-63
2023/03/22 08:12:56;;;;;;;2.00;1.30;;;;;;;;;;4940491;28;20813;-65
2023/03/22 08:15:22;;;;;;;2.23;1.30;;;;;;;;;;4957909;28;20583;-60
2023/03/22 08:17:48;;;;;;;2.50;1.38;;;;;;;;;;4959673;28;20800;-64
2023/03/22 08:20:13;;;;;;;2.00;1.38;;;;;;;;;;4974739;28;20087;-63
2023/03/22 08:22:39;;;;;;;2.30;1.40;;;;;;;;;;4957099;28;20711;-61
2023/03/22 08:25:05;;;;;;;2.65;1.60;;;;;;;;;;4972400;28;22301;-65
2023/03/22 08:27:30;;;;;;;2.17;1.40;;;;;;;;;;4975058;28;20480;-59
2023/03/22 08:29:57;;;;;;;2.90;1.40;;;;;;;;;;4956823;28;20128;-61
2023/03/22 08:32:22;;;;;;;2.75;1.42;;;;;;;;;;4956759;28;21495;-65
2023/03/22 08:34:47;;;;;;;1.88;1.30;;;;;;;;;;4956028;28;20085;-64
2023/03/22 08:37:13;;;;;;;1.97;1.33;;;;;;;;;;4972326;28;20053;-61
2023/03/22 08:39:38;;;;;;;1.70;1.20;;;;;;;;;;4955346;28;21641;-64
2023/03/22 08:42:03;;;;;;;1.75;1.30;;;;;;;;;;4973002;28;20131;-64
2023/03/22 08:44:29;;;;;;;2.42;1.30;;;;;;;;;;4973379;28;20137;-65
2023/03/22 08:46:54;;;;;;;1.90;1.40;;;;;;;;;;4956329;28;22550;-61
2023/03/22 08:49:20;;;;;;;3.22;1.50;;;;;;;;;;4972603;28;20053;-63
2023/03/22 08:51:45;;;;;;;2.97;1.67;;;;;;;;;;4973233;28;20034;-63
2023/03/22 08:54:11;;;;;;;2.57;1.53;;;;;;;;;;4973986;28;22011;-60
2023/03/22 08:56:36;;;;;;;3.65;1.58;;;;;;;;;;4928453;28;21016;-65
2023/03/22 08:59:05;;;;;;;2.63;1.30;;;;;;;;;;4971086;28;20762;-64
2023/03/22 09:01:30;;;;;;;2.38;1.40;;;;;;;;;;4952139;28;21590;-62
2023/03/22 09:03:56;;;;;;;3.88;1.45;;;;;;;;;;4952679;28;21737;-64
2023/03/22 09:06:21;;;;;;;1.95;1.25;;;;;;;;;;4972448;28;20794;-64
2023/03/22 09:08:50;;;;;;;2.30;1.30;;;;;;;;;;4970766;28;20128;-63
2023/03/22 09:11:16;;;;;;;2.35;1.23;;;;;;;;;;4955886;28;21105;-63
2023/03/22 09:13:41;;;;;;;2.90;1.40;;;;;;;;;;4971728;28;20991;-63
2023/03/22 09:16:07;;;;;;;2.83;1.58;;;;;;;;;;4952402;28;20037;-62
2023/03/22 09:18:33;;;;;;;1.90;1.30;;;;;;;;;;4974287;28;20474;-63
2023/03/22 09:20:58;;;;;;;1.65;1.20;;;;;;;;;;4967547;28;20043;-63
2023/03/22 09:23:23;;;;;;;2.58;1.30;;;;;;;;;;4947998;28;21912;-61
2023/03/22 09:25:49;;;;;;;2.13;1.30;;;;;;;;;;4931254;28;20025;-62
2023/03/22 09:28:14;;;;;;;2.37;1.53;;;;;;;;;;4950323;28;20280;-61
2023/03/22 09:30:39;;;;;;;1.85;1.30;;;;;;;;;;4951619;28;20283;-63
2023/03/22 09:33:07;;;;;;;2.85;1.52;;;;;;;;;;4956782;28;20141;-61
2023/03/22 09:35:33;;;;;;;2.20;1.55;;;;;;;;;;4968610;28;20033;-63
2023/03/22 09:37:58;;;;;;;2.10;1.30;;;;;;;;;;4953705;28;20029;-63
2023/03/22 09:40:24;;;;;;;2.28;1.20;;;;;;;;;;4958192;28;20119;-62
2023/03/22 09:42:50;;;;;;;2.88;1.35;;;;;;;;;;4972342;28;20404;-61
2023/03/22 09:45:17;;;;;;;2.03;1.02;;;;;;;;;;4968804;28;20068;-62
2023/03/22 09:47:43;;;;;;;1.65;1.17;;;;;;;;;;4941298;28;20029;-63
2023/03/22 09:50:17;;;;;;;2.72;1.48;;;;;;;;;;4954626;28;20718;-63
2023/03/22 09:52:43;;;;;;;3.10;1.50;;;;;;;;;;4955631;28;20041;-64
2023/03/22 09:55:28;;;;;;;1.95;1.50;;;;;;;;;;4953950;28;20896;-65
2023/03/22 09:58:00;;;;;;;2.83;1.40;;;;;;;;;;4929846;28;20508;-61
2023/03/22 10:00:36;;;;;;;2.20;1.50;;;;;;;;;;4955122;28;20040;-63
2023/03/22 10:03:02;;;;;;;1.83;1.35;;;;;;;;;;4969521;28;20700;-61
2023/03/22 10:05:48;;;;;;;2.03;1.30;;;;;;;;;;4954373;28;20365;-63
2023/03/22 10:08:13;;;;;;;1.75;1.30;;;;;;;;;;4969531;28;21045;-65
2023/03/22 10:10:40;;;;;;;2.30;1.52;;;;;;;;;;4971620;28;21359;-63
2023/03/22 10:13:09;;;;;;;2.00;1.23;;;;;;;;;;4955874;28;20098;-63
2023/03/22 10:15:35;;;;;;;1.45;1.10;;;;;;;;;;4973114;28;20033;-62
2023/03/22 10:18:00;;;;;;;1.92;1.20;;;;;;;;;;4972649;28;20627;-62
2023/03/22 10:20:31;;;;;;;2.65;1.33;;;;;;;;;;4973694;28;21546;-64
2023/03/22 10:22:56;;;;;;;;;;;;;;;;;;4957856;28;20803;-63
2023/03/22 10:25:23;;;;;;;2.38;1.30;;;;;;;;;;4957687;28;22021;-63
2023/03/22 10:27:49;;;;;;;1.85;1.35;;;;;;;;;;4954381;28;20053;-65
2023/03/22 10:30:21;;;;;;;1.60;1.13;;;;;;;;;;4962421;28;20095;-62
2023/03/22 10:32:58;;;;;;;1.95;1.00;;;;;;;;;;4956031;28;20081;-63
2023/03/22 10:35:24;;;;;;;2.53;1.48;;;;;;;;;;4940162;28;20045;-62
2023/03/22 10:37:49;;;;;;;1.80;1.27;;;;;;;;;;4932170;28;20157;-62
2023/03/22 10:40:18;;;;;;;2.15;1.48;;;;;;;;;;4935989;28;20104;-63
2023/03/22 10:42:44;;;;;;;2.40;1.37;;;;;;;;;;4953728;28;20683;-61
2023/03/22 10:45:13;;;;;;;1.90;1.20;;;;;;;;;;4927563;28;20103;-63
2023/03/22 10:47:41;;;;;;;2.22;1.45;;;;;;;;;;4951869;28;20472;-63
2023/03/22 10:50:08;;;;;;;2.92;1.42;;;;;;;;;;4950458;28;20038;-64
2023/03/22 10:52:47;;;;;;;2.70;1.60;;;;;;;;;;4968826;28;20076;-61
2023/03/22 10:55:12;;;;;;;3.45;1.65;;;;;;;;;;4976510;28;20623;-64
2023/03/22 10:57:38;;;;;;;2.63;1.50;;;;;;;;;;4973362;28;20060;-62
2023/03/22 11:00:08;;;;;;;1.92;1.13;;;;;;;;;;4958371;28;20608;-62
2023/03/22 11:02:34;;;;;;;2.72;1.40;;;;;;;;;;4965011;28;20316;-64
2023/03/22 11:05:00;;;;;;;2.38;1.42;;;;;;;;;;4954115;28;20460;-62
2023/03/22 11:07:29;;;;;;;2.83;1.45;;;;;;;;;;4974387;28;20025;-62
2023/03/22 11:09:58;;;;;;;1.90;1.30;;;;;;;;;;4953384;28;20658;-63
2023/03/22 11:12:24;;;;;;;1.67;1.20;;;;;;;;;;4953181;28;20119;-62
2023/03/22 11:14:49;;;;;;;2.88;1.20;;;;;;;;;;4972592;28;20798;-61
2023/03/22 11:17:15;;;;;;;1.77;1.27;;;;;;;;;;4968173;28;20063;-64
2023/03/22 11:19:48;;;;;;;1.75;1.23;;;;;;;;;;4951030;28;22827;-63
2023/03/22 11:22:20;;;;;;;1.67;1.25;;;;;;;;;;4952643;28;20040;-63
2023/03/22 11:24:45;;;;;;;2.38;1.33;;;;;;;;;;4973517;28;20107;-61
2023/03/22 11:27:17;;;;;;;2.15;1.33;;;;;;;;;;4954073;28;21149;-62
2023/03/22 11:29:46;;;;;;;2.17;1.40;;;;;;;;;;4949905;28;22173;-62
2023/03/22 11:32:41;;;;;;;1.55;1.20;;;;;;;;;;4953290;28;20040;-62
2023/03/22 11:35:17;;;;;;;1.83;1.30;;;;;;;;;;4951535;28;20036;-62
2023/03/22 11:37:43;;;;;;;2.60;1.30;;;;;;;;;;4952539;28;20041;-61
2023/03/22 11:40:12;;;;;;;1.98;1.30;;;;;;;;;;4963936;28;20541;-63
2023/03/22 11:42:37;;;;;;;1.88;1.27;;;;;;;;;;4925830;28;20049;-65
2023/03/22 11:45:02;;;;;;;2.22;1.30;;;;;;;;;;4954002;28;20080;-63
2023/03/22 11:47:28;;;;;;;3.45;1.83;;;;;;;;;;4942169;28;20048;-64
2023/03/22 11:49:55;;;;;;;2.10;1.40;;;;;;;;;;4958003;28;20391;-63
2023/03/22 11:52:22;;;;;;;2.15;1.50;;;;;;;;;;4959423;28;20043;-62
2023/03/22 11:54:47;;;;;;;1.98;1.23;;;;;;;;;;4941868;28;20433;-63
2023/03/22 11:57:14;;;;;;;2.22;1.30;;;;;;;;;;4974099;28;20191;-63
2023/03/22 11:59:59;;;;;;;2.25;1.50;;;;;;;;;;4946830;28;20128;-66
2023/03/22 12:02:28;;;;;;;2.10;1.58;;;;;;;;;;4958856;28;20092;-61
2023/03/22 12:05:14;;;;;;;1.85;1.27;;;;;;;;;;4928317;28;20583;-63
2023/03/22 12:07:40;;;;;;;2.17;1.35;;;;;;;;;;4954566;28;20138;-63
2023/03/22 12:10:12;;;;;;;2.05;1.50;;;;;;;;;;4937786;28;20037;-63
2023/03/22 12:12:38;;;;;;;2.15;1.60;;;;;;;;;;4936609;28;20056;-63
2023/03/22 12:15:32;;;;;;;2.15;1.50;;;;;;;;;;4936400;28;20022;-62
2023/03/22 12:18:04;;;;;;;2.22;1.50;;;;;;;;;;4927067;28;21381;-62
2023/03/22 12:20:30;;;;;;;2.13;1.20;;;;;;;;;;4956163;28;20825;-63
2023/03/22 12:22:55;;;;;;;1.80;1.20;;;;;;;;;;4954118;28;20911;-62
2023/03/22 12:25:22;;;;;;;1.55;1.20;;;;;;;;;;4954921;28;20029;-62
2023/03/22 12:27:47;;;;;;;1.90;1.17;;;;;;;;;;4952447;28;20828;-63
2023/03/22 12:30:20;;;;;;;1.70;1.30;;;;;;;;;;4953156;28;20045;-63
2023/03/22 12:32:52;;;;;;;2.03;1.42;;;;;;;;;;4954831;28;20059;-62
2023/03/22 12:35:19;;;;;;;1.88;1.40;;;;;;;;;;4935957;28;20602;-62
2023/03/22 12:37:49;;;;;;;2.38;1.70;;;;;;;;;;4936618;28;20052;-61
2023/03/22 12:40:20;;;;;;;2.45;1.45;;;;;;;;;;4924567;28;20151;-65
2023/03/22 12:43:05;;;;;;;2.15;1.38;;;;;;;;;;4921899;28;20045;-60
2023/03/22 12:45:30;;;;;;;1.80;1.30;;;;;;;;;;4923725;28;20045;-61
2023/03/22 12:47:58;;;;;;;2.58;1.30;;;;;;;;;;4953767;28;20096;-64
2023/03/22 12:50:24;;;;;;;1.90;1.30;;;;;;;;;;4934735;28;20053;-62
2023/03/22 12:52:53;;;;;;;2.05;1.45;;;;;;;;;;4936352;28;20034;-63
2023/03/22 12:55:25;;;;;;;2.33;1.40;;;;;;;;;;4953488;28;20053;-62
2023/03/22 12:57:51;;;;;;;2.33;1.55;;;;;;;;;;4934555;28;20068;-64
2023/03/22 13:00:17;;;;;;;2.45;1.48;;;;;;;;;;4953024;28;20140;-62
2023/03/22 13:02:47;;;;;;;2.13;1.50;;;;;;;;;;4947084;28;20557;-62
2023/03/22 13:05:12;;;;;;;2.15;1.20;;;;;;;;;;4953683;28;20037;-65
2023/03/22 13:07:37;;;;;;;2.57;1.60;;;;;;;;;;4970224;28;22095;-62
2023/03/22 13:10:21;;;;;;;3.00;1.40;;;;;;;;;;4970032;28;20353;-64
2023/03/22 13:13:05;;;;;;;2.10;1.40;;;;;;;;;;4969964;28;20047;-62
2023/03/22 13:15:31;;;;;;;1.67;1.27;;;;;;;;;;4970090;28;20178;-64
2023/03/22 13:17:57;;;;;;;2.13;1.45;;;;;;;;;;4968070;28;22209;-64
2023/03/22 13:20:25;;;;;;;2.28;1.73;;;;;;;;;;4973798;28;20032;-62
2023/03/22 13:22:51;;;;;;;2.13;1.42;;;;;;;;;;4974736;28;20037;-63
2023/03/22 13:25:17;;;;;;;1.73;1.40;;;;;;;;;;4957810;28;20106;-61
2023/03/22 13:27:50;;;;;;;1.50;1.15;;;;;;;;;;4975097;28;20279;-62
2023/03/22 13:30:22;;;;;;;1.88;1.35;;;;;;;;;;4958240;28;20171;-63
2023/03/22 13:33:02;;;;;;;3.00;1.40;;;;;;;;;;4974352;28;20102;-60
2023/03/22 13:35:47;;;;;;;2.88;1.45;;;;;;;;;;4972414;28;20235;-61
2023/03/22 13:38:29;;;;;;;1.60;1.30;;;;;;;;;;4957943;28;20141;-63
2023/03/22 13:40:58;;;;;;;2.17;1.60;;;;;;;;;;4967394;28;20110;-59
2023/03/22 13:43:46;;;;;;;3.05;1.65;;;;;;;;;;4958454;28;20037;-63
2023/03/22 13:46:15;;;;;;;1.98;1.27;;;;;;;;;;4948193;28;20072;-63
2023/03/22 13:48:46;;;;;;;1.60;1.35;;;;;;;;;;4972503;28;20808;-60
2023/03/22 13:51:30;;;;;;;2.08;1.42;;;;;;;;;;4972794;28;20055;-63
2023/03/22 13:54:17;;;;;;;1.75;1.48;;;;;;;;;;4972113;28;20059;-61
2023/03/22 13:56:45;;;;;;;2.30;1.30;;;;;;;;;;4971578;28;20639;-64
2023/03/22 13:59:11;;;;;;;1.63;1.33;;;;;;;;;;4971653;28;20045;-60
2023/03/22 14:01:37;;;;;;;1.80;1.55;;;;;;;;;;4969046;28;20247;-63
2023/03/22 14:04:08;;;;;;;2.53;1.83;;;;;;;;;;4955410;28;21739;-61
2023/03/22 14:06:40;;;;;;;2.03;1.30;;;;;;;;;;4956415;28;20823;-64
2023/03/22 14:09:10;;;;;;;2.15;1.45;;;;;;;;;;4970463;28;20040;-62
2023/03/22 14:11:36;;;;;;;;;;;;;;;;;;4955766;28;20067;-60
2023/03/22 14:14:03;;;;;;;2.30;1.60;;;;;;;;;;4969097;28;21753;-64
2023/03/22 14:16:37;;;;;;;2.17;1.38;;;;;;;;;;4969925;28;20135;-62
2023/03/22 14:19:03;;;;;;;2.60;1.40;;;;;;;;;;4963749;28;21832;-61
2023/03/22 14:21:38;;;;;;;2.05;1.30;;;;;;;;;;4956000;28;20049;-63
2023/03/22 14:24:03;;;;;;;2.00;1.33;;;;;;;;;;4956258;28;20343;-63
2023/03/22 14:26:42;;;;;;;1.90;1.40;;;;;;;;;;4955272;28;20056;-62
2023/03/22 14:29:17;;;;;;;1.92;1.30;;;;;;;;;;4938547;28;20633;-60
2023/03/22 14:31:43;;;;;;;1.75;1.35;;;;;;;;;;4972622;28;20033;-60
2023/03/22 14:34:10;;;;;;;2.15;1.40;;;;;;;;;;4970732;28;20163;-62
2023/03/22 14:36:37;;;;;;;1.70;1.30;;;;;;;;;;4955548;28;20386;-61
2023/03/22 14:39:06;;;;;;;3.22;1.55;;;;;;;;;;4965281;28;20045;-64
2023/03/22 14:41:31;;;;;;;2.17;1.30;;;;;;;;;;4972118;28;20072;-64
2023/03/22 14:44:00;;;;;;;1.93;1.40;;;;;;;;;;4970814;28;20051;-62
2023/03/22 14:46:37;;;;;;;2.30;1.45;;;;;;;;;;4969546;28;21660;-63